sensor_id;sensor_type;location;lat;lon;timestamp;temperature;humidity
3051;DHT22;1535;51.098;6.414;2023-02-13T00:01:21;7.30;99.90
3051;DHT22;1535;51.098;6.414;2023-02-13T00:03:48;7.30;99.90
3051;DHT22;1535;51.098;6.414;2023-02-13T00:06:15;7.30;99.90
3051;DHT22;1535;51.098;6.414;2023-02-13T00:08:42;7.30;99.90
3051;DHT22;1535;51.098;6.414;2023-02-13T00:11:09;7.30;99.90
3051;DHT22;1535;51.098;6.414;2023-02-13T00:13:36;7.40;99.90
3051;DHT22;1535;51.098;6.414;2023-02-13T00:16:04;7.40;99.90
3051;DHT22;1535;51.098;6.414;2023-02-13T00:18:34;7.40;99.90
3051;DHT22;1535;51.098;6.414;2023-02-13T00:21:03;7.40;99.90
3051;DHT22;1535;51.098;6.414;2023-02-13T00:23:32;7.30;99.90
3051;DHT22;1535;51.098;6.414;2023-02-13T00:26:00;7.30;99.90
3051;DHT22;1535;51.098;6.414;2023-02-13T00:28:30;7.30;99.90
3051;DHT22;1535;51.098;6.414;2023-02-13T00:31:03;7.40;99.90
3051;DHT22;1535;51.098;6.414;2023-02-13T00:33:31;7.30;99.90
3051;DHT22;1535;51.098;6.414;2023-02-13T00:36:06;7.30;99.90
3051;DHT22;1535;51.098;6.414;2023-02-13T00:38:33;7.30;99.90
3051;DHT22;1535;51.098;6.414;2023-02-13T00:41:00;7.30;99.90
3051;DHT22;1535;51.098;6.414;2023-02-13T00:43:27;7.30;99.90
3051;DHT22;1535;51.098;6.414;2023-02-13T00:45:54;7.30;99.90
3051;DHT22;1535;51.098;6.414;2023-02-13T00:48:24;7.20;99.90
3051;DHT22;1535;51.098;6.414;2023-02-13T00:50:51;7.20;99.90
3051;DHT22;1535;51.098;6.414;2023-02-13T00:53:18;7.20;99.90
3051;DHT22;1535;51.098;6.414;2023-02-13T00:55:45;7.10;99.90
3051;DHT22;1535;51.098;6.414;2023-02-13T00:58:12;7.10;99.90
3051;DHT22;1535;51.098;6.414;2023-02-13T01:00:39;7.00;99.90
3051;DHT22;1535;51.098;6.414;2023-02-13T01:03:06;7.00;99.90
3051;DHT22;1535;51.098;6.414;2023-02-13T01:05:35;6.90;99.90
3051;DHT22;1535;51.098;6.414;2023-02-13T01:08:02;6.90;99.90
3051;DHT22;1535;51.098;6.414;2023-02-13T01:10:29;6.90;99.90
3051;DHT22;1535;51.098;6.414;2023-02-13T01:12:55;6.80;99.90
3051;DHT22;1535;51.098;6.414;2023-02-13T01:15:22;6.80;99.90
3051;DHT22;1535;51.098;6.414;2023-02-13T01:17:51;6.70;99.90
3051;DHT22;1535;51.098;6.414;2023-02-13T01:20:18;6.60;99.90
3051;DHT22;1535;51.098;6.414;2023-02-13T01:22:47;6.60;99.90
3051;DHT22;1535;51.098;6.414;2023-02-13T01:25:14;6.50;99.90
3051;DHT22;1535;51.098;6.414;2023-02-13T01:27:42;6.40;99.90
3051;DHT22;1535;51.098;6.414;2023-02-13T01:30:11;6.40;99.90
3051;DHT22;1535;51.098;6.414;2023-02-13T01:32:38;6.30;99.90
3051;DHT22;1535;51.098;6.414;2023-02-13T01:35:05;6.30;99.90
3051;DHT22;1535;51.098;6.414;2023-02-13T01:37:32;6.20;99.90
3051;DHT22;1535;51.098;6.414;2023-02-13T01:40:00;6.20;99.90
3051;DHT22;1535;51.098;6.414;2023-02-13T01:42:29;6.20;99.90
3051;DHT22;1535;51.098;6.414;2023-02-13T01:44:57;6.10;99.90
3051;DHT22;1535;51.098;6.414;2023-02-13T01:47:26;6.10;99.90
3051;DHT22;1535;51.098;6.414;2023-02-13T01:50:01;6.10;99.90
3051;DHT22;1535;51.098;6.414;2023-02-13T01:52:29;6.00;99.90
3051;DHT22;1535;51.098;6.414;2023-02-13T01:54:56;6.00;99.90
3051;DHT22;1535;51.098;6.414;2023-02-13T01:57:27;6.00;99.90
3051;DHT22;1535;51.098;6.414;2023-02-13T01:59:58;5.90;99.90
3051;DHT22;1535;51.098;6.414;2023-02-13T02:02:27;5.90;99.90
3051;DHT22;1535;51.098;6.414;2023-02-13T02:04:54;5.90;99.90
3051;DHT22;1535;51.098;6.414;2023-02-13T02:07:23;5.80;99.90
3051;DHT22;1535;51.098;6.414;2023-02-13T02:09:54;5.80;99.90
3051;DHT22;1535;51.098;6.414;2023-02-13T02:12:26;5.80;99.90
3051;DHT22;1535;51.098;6.414;2023-02-13T02:14:55;5.80;99.90
3051;DHT22;1535;51.098;6.414;2023-02-13T02:17:26;5.80;99.90
3051;DHT22;1535;51.098;6.414;2023-02-13T02:20:02;5.70;99.90
3051;DHT22;1535;51.098;6.414;2023-02-13T02:22:57;5.70;99.90
3051;DHT22;1535;51.098;6.414;2023-02-13T02:32:16;5.70;99.90
3051;DHT22;1535;51.098;6.414;2023-02-13T02:34:53;5.60;99.90
3051;DHT22;1535;51.098;6.414;2023-02-13T02:37:40;5.50;99.90
3051;DHT22;1535;51.098;6.414;2023-02-13T02:40:17;5.50;99.90
3051;DHT22;1535;51.098;6.414;2023-02-13T02:42:59;5.40;99.90
3051;DHT22;1535;51.098;6.414;2023-02-13T02:45:31;5.40;99.90
3051;DHT22;1535;51.098;6.414;2023-02-13T02:48:06;5.40;99.90
3051;DHT22;1535;51.098;6.414;2023-02-13T02:50:57;5.40;99.90
3051;DHT22;1535;51.098;6.414;2023-02-13T02:53:32;5.50;99.90
3051;DHT22;1535;51.098;6.414;2023-02-13T02:56:07;5.60;99.90
3051;DHT22;1535;51.098;6.414;2023-02-13T02:58:40;5.50;99.90
3051;DHT22;1535;51.098;6.414;2023-02-13T03:01:28;5.50;99.90
3051;DHT22;1535;51.098;6.414;2023-02-13T03:04:18;5.50;99.90
3051;DHT22;1535;51.098;6.414;2023-02-13T03:07:06;5.50;99.90
3051;DHT22;1535;51.098;6.414;2023-02-13T03:09:37;5.50;99.90
3051;DHT22;1535;51.098;6.414;2023-02-13T03:12:26;5.50;99.90
3051;DHT22;1535;51.098;6.414;2023-02-13T03:15:12;5.60;99.90
3051;DHT22;1535;51.098;6.414;2023-02-13T03:17:39;5.50;99.90
3051;DHT22;1535;51.098;6.414;2023-02-13T03:20:33;5.50;99.90
3051;DHT22;1535;51.098;6.414;2023-02-13T03:23:25;5.50;99.90
3051;DHT22;1535;51.098;6.414;2023-02-13T03:26:21;5.60;99.90
3051;DHT22;1535;51.098;6.414;2023-02-13T03:29:04;5.50;99.90
3051;DHT22;1535;51.098;6.414;2023-02-13T03:31:55;5.60;99.90
3051;DHT22;1535;51.098;6.414;2023-02-13T03:34:28;5.60;99.90
3051;DHT22;1535;51.098;6.414;2023-02-13T03:37:21;5.60;99.90
3051;DHT22;1535;51.098;6.414;2023-02-13T03:40:13;5.50;99.90
3051;DHT22;1535;51.098;6.414;2023-02-13T03:42:44;5.60;99.90
3051;DHT22;1535;51.098;6.414;2023-02-13T03:45:15;5.60;99.90
3051;DHT22;1535;51.098;6.414;2023-02-13T03:48:03;5.60;99.90
3051;DHT22;1535;51.098;6.414;2023-02-13T03:50:35;5.60;99.90
3051;DHT22;1535;51.098;6.414;2023-02-13T03:53:07;5.60;99.90
3051;DHT22;1535;51.098;6.414;2023-02-13T03:55:37;5.60;99.90
3051;DHT22;1535;51.098;6.414;2023-02-13T03:58:26;5.60;99.90
3051;DHT22;1535;51.098;6.414;2023-02-13T04:01:13;5.60;99.90
3051;DHT22;1535;51.098;6.414;2023-02-13T04:03:45;5.60;99.90
3051;DHT22;1535;51.098;6.414;2023-02-13T04:06:17;5.60;99.90
3051;DHT22;1535;51.098;6.414;2023-02-13T04:08:47;5.60;99.90
3051;DHT22;1535;51.098;6.414;2023-02-13T04:11:16;5.60;99.90
3051;DHT22;1535;51.098;6.414;2023-02-13T04:13:47;5.50;99.90
3051;DHT22;1535;51.098;6.414;2023-02-13T04:16:17;5.50;99.90
3051;DHT22;1535;51.098;6.414;2023-02-13T04:18:48;5.40;99.90
3051;DHT22;1535;51.098;6.414;2023-02-13T04:21:16;5.50;99.90
3051;DHT22;1535;51.098;6.414;2023-02-13T04:23:43;5.50;99.90
3051;DHT22;1535;51.098;6.414;2023-02-13T04:26:15;5.50;99.90
3051;DHT22;1535;51.098;6.414;2023-02-13T04:28:43;5.50;99.90
3051;DHT22;1535;51.098;6.414;2023-02-13T04:31:10;5.50;99.90
3051;DHT22;1535;51.098;6.414;2023-02-13T04:33:37;5.50;99.90
3051;DHT22;1535;51.098;6.414;2023-02-13T04:36:05;5.50;99.90
3051;DHT22;1535;51.098;6.414;2023-02-13T04:38:31;5.50;99.90
3051;DHT22;1535;51.098;6.414;2023-02-13T04:40:58;5.50;99.90
3051;DHT22;1535;51.098;6.414;2023-02-13T04:43:26;5.40;99.90
3051;DHT22;1535;51.098;6.414;2023-02-13T04:45:53;5.40;99.90
3051;DHT22;1535;51.098;6.414;2023-02-13T04:48:19;5.40;99.90
3051;DHT22;1535;51.098;6.414;2023-02-13T04:50:46;5.30;99.90
3051;DHT22;1535;51.098;6.414;2023-02-13T04:53:13;5.30;99.90
3051;DHT22;1535;51.098;6.414;2023-02-13T04:55:40;5.30;99.90
3051;DHT22;1535;51.098;6.414;2023-02-13T04:58:07;5.30;99.90
3051;DHT22;1535;51.098;6.414;2023-02-13T05:00:35;5.30;99.90
3051;DHT22;1535;51.098;6.414;2023-02-13T05:03:04;5.30;99.90
3051;DHT22;1535;51.098;6.414;2023-02-13T05:05:31;5.30;99.90
3051;DHT22;1535;51.098;6.414;2023-02-13T05:07:59;5.30;99.90
3051;DHT22;1535;51.098;6.414;2023-02-13T05:10:26;5.20;99.90
3051;DHT22;1535;51.098;6.414;2023-02-13T05:12:53;5.20;99.90
3051;DHT22;1535;51.098;6.414;2023-02-13T05:15:20;5.20;99.90
3051;DHT22;1535;51.098;6.414;2023-02-13T05:17:50;5.20;99.90
3051;DHT22;1535;51.098;6.414;2023-02-13T05:20:17;5.20;99.90
3051;DHT22;1535;51.098;6.414;2023-02-13T05:22:44;5.20;99.90
3051;DHT22;1535;51.098;6.414;2023-02-13T05:25:28;5.20;99.90
3051;DHT22;1535;51.098;6.414;2023-02-13T05:27:56;5.10;99.90
3051;DHT22;1535;51.098;6.414;2023-02-13T05:30:23;5.20;99.90
3051;DHT22;1535;51.098;6.414;2023-02-13T05:32:52;5.20;99.90
3051;DHT22;1535;51.098;6.414;2023-02-13T05:35:19;5.10;99.90
3051;DHT22;1535;51.098;6.414;2023-02-13T05:37:46;5.10;99.90
3051;DHT22;1535;51.098;6.414;2023-02-13T05:40:14;5.00;99.90
3051;DHT22;1535;51.098;6.414;2023-02-13T05:42:42;5.00;99.90
3051;DHT22;1535;51.098;6.414;2023-02-13T05:45:09;5.00;99.90
3051;DHT22;1535;51.098;6.414;2023-02-13T05:47:36;5.10;99.90
3051;DHT22;1535;51.098;6.414;2023-02-13T05:50:05;5.10;99.90
3051;DHT22;1535;51.098;6.414;2023-02-13T05:52:33;5.10;99.90
3051;DHT22;1535;51.098;6.414;2023-02-13T05:55:00;5.10;99.90
3051;DHT22;1535;51.098;6.414;2023-02-13T05:57:27;5.10;99.90
3051;DHT22;1535;51.098;6.414;2023-02-13T05:59:54;5.10;99.90
3051;DHT22;1535;51.098;6.414;2023-02-13T06:02:21;5.10;99.90
3051;DHT22;1535;51.098;6.414;2023-02-13T06:04:48;5.00;99.90
3051;DHT22;1535;51.098;6.414;2023-02-13T06:07:17;5.00;99.90
3051;DHT22;1535;51.098;6.414;2023-02-13T06:09:43;5.10;99.90
3051;DHT22;1535;51.098;6.414;2023-02-13T06:12:11;5.10;99.90
3051;DHT22;1535;51.098;6.414;2023-02-13T06:14:37;5.00;99.90
3051;DHT22;1535;51.098;6.414;2023-02-13T06:17:04;5.00;99.90
3051;DHT22;1535;51.098;6.414;2023-02-13T06:19:31;4.90;99.90
3051;DHT22;1535;51.098;6.414;2023-02-13T06:21:58;5.00;99.90
3051;DHT22;1535;51.098;6.414;2023-02-13T06:24:26;5.00;99.90
3051;DHT22;1535;51.098;6.414;2023-02-13T06:26:53;5.10;99.90
3051;DHT22;1535;51.098;6.414;2023-02-13T06:29:20;5.00;99.90
3051;DHT22;1535;51.098;6.414;2023-02-13T06:31:47;5.00;99.90
3051;DHT22;1535;51.098;6.414;2023-02-13T06:34:13;5.00;99.90
3051;DHT22;1535;51.098;6.414;2023-02-13T06:36:40;5.00;99.90
3051;DHT22;1535;51.098;6.414;2023-02-13T06:39:09;5.00;99.90
3051;DHT22;1535;51.098;6.414;2023-02-13T06:41:37;5.00;99.90
3051;DHT22;1535;51.098;6.414;2023-02-13T06:44:04;5.00;99.90
3051;DHT22;1535;51.098;6.414;2023-02-13T06:46:32;5.00;99.90
3051;DHT22;1535;51.098;6.414;2023-02-13T06:48:59;5.00;99.90
3051;DHT22;1535;51.098;6.414;2023-02-13T06:51:25;5.00;99.90
3051;DHT22;1535;51.098;6.414;2023-02-13T06:53:52;5.00;99.90
3051;DHT22;1535;51.098;6.414;2023-02-13T06:56:19;5.10;99.90
3051;DHT22;1535;51.098;6.414;2023-02-13T06:58:47;5.00;99.90
3051;DHT22;1535;51.098;6.414;2023-02-13T07:01:13;5.10;99.90
3051;DHT22;1535;51.098;6.414;2023-02-13T07:03:40;5.10;99.90
3051;DHT22;1535;51.098;6.414;2023-02-13T07:06:07;5.10;99.90
3051;DHT22;1535;51.098;6.414;2023-02-13T07:08:34;5.10;99.90
3051;DHT22;1535;51.098;6.414;2023-02-13T07:11:00;5.10;99.90
3051;DHT22;1535;51.098;6.414;2023-02-13T07:13:27;5.10;99.90
3051;DHT22;1535;51.098;6.414;2023-02-13T07:15:59;5.20;99.90
3051;DHT22;1535;51.098;6.414;2023-02-13T07:18:26;5.20;99.90
3051;DHT22;1535;51.098;6.414;2023-02-13T07:20:53;5.20;99.90
3051;DHT22;1535;51.098;6.414;2023-02-13T07:23:20;5.30;99.90
3051;DHT22;1535;51.098;6.414;2023-02-13T07:25:47;5.30;99.90
3051;DHT22;1535;51.098;6.414;2023-02-13T07:28:14;5.30;99.90
3051;DHT22;1535;51.098;6.414;2023-02-13T07:30:41;5.40;99.90
3051;DHT22;1535;51.098;6.414;2023-02-13T07:33:10;5.50;99.90
3051;DHT22;1535;51.098;6.414;2023-02-13T07:35:36;5.50;99.90
3051;DHT22;1535;51.098;6.414;2023-02-13T07:38:05;5.50;99.90
3051;DHT22;1535;51.098;6.414;2023-02-13T07:40:32;5.50;99.90
3051;DHT22;1535;51.098;6.414;2023-02-13T07:42:59;5.50;99.90
3051;DHT22;1535;51.098;6.414;2023-02-13T07:45:27;5.50;99.90
3051;DHT22;1535;51.098;6.414;2023-02-13T07:47:54;5.50;99.90
3051;DHT22;1535;51.098;6.414;2023-02-13T07:50:23;5.60;99.90
3051;DHT22;1535;51.098;6.414;2023-02-13T07:52:53;5.60;99.90
3051;DHT22;1535;51.098;6.414;2023-02-13T07:55:21;5.60;99.90
3051;DHT22;1535;51.098;6.414;2023-02-13T07:57:48;5.70;99.90
3051;DHT22;1535;51.098;6.414;2023-02-13T08:00:16;5.70;99.90
3051;DHT22;1535;51.098;6.414;2023-02-13T08:02:43;5.80;99.90
3051;DHT22;1535;51.098;6.414;2023-02-13T08:05:10;5.80;99.90
3051;DHT22;1535;51.098;6.414;2023-02-13T08:07:38;5.90;99.90
3051;DHT22;1535;51.098;6.414;2023-02-13T08:10:07;5.90;99.90
3051;DHT22;1535;51.098;6.414;2023-02-13T08:12:51;6.00;99.90
3051;DHT22;1535;51.098;6.414;2023-02-13T08:15:18;6.10;99.90
3051;DHT22;1535;51.098;6.414;2023-02-13T08:17:45;6.10;99.90
3051;DHT22;1535;51.098;6.414;2023-02-13T08:20:12;6.20;99.90
3051;DHT22;1535;51.098;6.414;2023-02-13T08:22:40;6.30;99.90
3051;DHT22;1535;51.098;6.414;2023-02-13T08:25:07;6.30;99.90
3051;DHT22;1535;51.098;6.414;2023-02-13T08:27:34;6.50;99.90
3051;DHT22;1535;51.098;6.414;2023-02-13T08:30:01;6.50;99.90
3051;DHT22;1535;51.098;6.414;2023-02-13T08:32:29;6.60;99.90
3051;DHT22;1535;51.098;6.414;2023-02-13T08:34:55;6.70;99.90
3051;DHT22;1535;51.098;6.414;2023-02-13T08:37:23;6.80;99.90
3051;DHT22;1535;51.098;6.414;2023-02-13T08:39:51;6.80;99.90
3051;DHT22;1535;51.098;6.414;2023-02-13T08:42:18;6.80;99.90
3051;DHT22;1535;51.098;6.414;2023-02-13T08:44:44;7.00;99.90
3051;DHT22;1535;51.098;6.414;2023-02-13T08:47:11;7.00;99.90
3051;DHT22;1535;51.098;6.414;2023-02-13T08:49:38;7.10;99.90
3051;DHT22;1535;51.098;6.414;2023-02-13T08:52:05;7.10;99.90
3051;DHT22;1535;51.098;6.414;2023-02-13T08:54:33;7.20;99.90
3051;DHT22;1535;51.098;6.414;2023-02-13T08:57:02;7.30;99.90
3051;DHT22;1535;51.098;6.414;2023-02-13T08:59:29;7.40;99.90
3051;DHT22;1535;51.098;6.414;2023-02-13T09:01:56;7.40;99.90
3051;DHT22;1535;51.098;6.414;2023-02-13T09:04:23;7.40;99.90
3051;DHT22;1535;51.098;6.414;2023-02-13T09:06:50;7.50;99.90
3051;DHT22;1535;51.098;6.414;2023-02-13T09:09:17;7.50;99.90
3051;DHT22;1535;51.098;6.414;2023-02-13T09:11:43;7.70;99.90
3051;DHT22;1535;51.098;6.414;2023-02-13T09:14:11;7.80;99.90
3051;DHT22;1535;51.098;6.414;2023-02-13T09:16:39;7.90;99.90
3051;DHT22;1535;51.098;6.414;2023-02-13T09:19:06;7.90;99.90
3051;DHT22;1535;51.098;6.414;2023-02-13T09:21:33;8.00;99.90
3051;DHT22;1535;51.098;6.414;2023-02-13T09:24:00;8.00;99.90
3051;DHT22;1535;51.098;6.414;2023-02-13T09:26:27;8.00;99.90
3051;DHT22;1535;51.098;6.414;2023-02-13T09:28:54;8.00;99.90
3051;DHT22;1535;51.098;6.414;2023-02-13T09:31:22;8.10;99.90
3051;DHT22;1535;51.098;6.414;2023-02-13T09:33:49;8.10;99.90
3051;DHT22;1535;51.098;6.414;2023-02-13T09:36:18;8.20;99.90
3051;DHT22;1535;51.098;6.414;2023-02-13T09:38:46;8.30;99.90
3051;DHT22;1535;51.098;6.414;2023-02-13T09:41:15;8.50;99.90
3051;DHT22;1535;51.098;6.414;2023-02-13T09:43:45;8.60;99.90
3051;DHT22;1535;51.098;6.414;2023-02-13T09:46:17;8.70;99.90
3051;DHT22;1535;51.098;6.414;2023-02-13T09:48:49;8.70;99.90
3051;DHT22;1535;51.098;6.414;2023-02-13T09:51:19;8.80;99.90
3051;DHT22;1535;51.098;6.414;2023-02-13T09:53:51;9.00;99.90
3051;DHT22;1535;51.098;6.414;2023-02-13T09:56:23;9.00;99.90
3051;DHT22;1535;51.098;6.414;2023-02-13T09:58:57;9.00;99.90
3051;DHT22;1535;51.098;6.414;2023-02-13T10:01:29;9.10;99.90
3051;DHT22;1535;51.098;6.414;2023-02-13T10:04:23;9.10;99.90
3051;DHT22;1535;51.098;6.414;2023-02-13T10:06:57;9.30;99.90
3051;DHT22;1535;51.098;6.414;2023-02-13T10:09:37;9.30;99.90
3051;DHT22;1535;51.098;6.414;2023-02-13T10:12:22;9.40;99.90
3051;DHT22;1535;51.098;6.414;2023-02-13T10:15:02;9.50;99.90
3051;DHT22;1535;51.098;6.414;2023-02-13T10:17:33;9.60;99.90
3051;DHT22;1535;51.098;6.414;2023-02-13T10:20:04;9.70;99.90
3051;DHT22;1535;51.098;6.414;2023-02-13T10:22:36;9.80;99.90
3051;DHT22;1535;51.098;6.414;2023-02-13T10:25:07;9.80;99.90
3051;DHT22;1535;51.098;6.414;2023-02-13T10:27:39;9.90;99.90
3051;DHT22;1535;51.098;6.414;2023-02-13T10:30:15;10.00;99.90
3051;DHT22;1535;51.098;6.414;2023-02-13T10:32:49;10.00;99.90
3051;DHT22;1535;51.098;6.414;2023-02-13T10:35:22;10.00;99.90
3051;DHT22;1535;51.098;6.414;2023-02-13T10:37:52;10.00;99.90
3051;DHT22;1535;51.098;6.414;2023-02-13T10:40:22;10.10;99.90
3051;DHT22;1535;51.098;6.414;2023-02-13T10:42:57;10.20;99.90
3051;DHT22;1535;51.098;6.414;2023-02-13T10:45:43;10.50;99.90
3051;DHT22;1535;51.098;6.414;2023-02-13T10:48:21;11.20;99.90
3051;DHT22;1535;51.098;6.414;2023-02-13T10:51:02;12.20;99.90
3051;DHT22;1535;51.098;6.414;2023-02-13T10:53:42;12.70;99.90
3051;DHT22;1535;51.098;6.414;2023-02-13T10:56:19;13.10;99.90
3051;DHT22;1535;51.098;6.414;2023-02-13T10:59:07;13.70;99.90
3051;DHT22;1535;51.098;6.414;2023-02-13T11:01:43;14.80;99.90
3051;DHT22;1535;51.098;6.414;2023-02-13T11:04:15;15.70;99.90
3051;DHT22;1535;51.098;6.414;2023-02-13T11:06:49;16.30;99.90
3051;DHT22;1535;51.098;6.414;2023-02-13T11:09:18;16.40;99.90
3051;DHT22;1535;51.098;6.414;2023-02-13T11:11:45;16.20;99.90
3051;DHT22;1535;51.098;6.414;2023-02-13T11:14:14;16.80;99.90
3051;DHT22;1535;51.098;6.414;2023-02-13T11:16:52;17.00;99.90
3051;DHT22;1535;51.098;6.414;2023-02-13T11:19:24;17.50;99.90
3051;DHT22;1535;51.098;6.414;2023-02-13T11:21:58;17.20;99.90
3051;DHT22;1535;51.098;6.414;2023-02-13T11:24:27;17.60;99.90
3051;DHT22;1535;51.098;6.414;2023-02-13T11:27:01;18.20;99.90
3051;DHT22;1535;51.098;6.414;2023-02-13T11:29:32;18.20;99.90
3051;DHT22;1535;51.098;6.414;2023-02-13T11:32:20;18.30;99.90
3051;DHT22;1535;51.098;6.414;2023-02-13T11:34:48;18.00;99.90
3051;DHT22;1535;51.098;6.414;2023-02-13T11:37:21;18.30;99.90
3051;DHT22;1535;51.098;6.414;2023-02-13T11:39:50;19.10;99.90
3051;DHT22;1535;51.098;6.414;2023-02-13T11:42:23;19.60;99.90
3051;DHT22;1535;51.098;6.414;2023-02-13T11:44:53;19.80;99.90
3051;DHT22;1535;51.098;6.414;2023-02-13T11:47:34;19.40;99.90
3051;DHT22;1535;51.098;6.414;2023-02-13T11:50:01;19.60;99.90
3051;DHT22;1535;51.098;6.414;2023-02-13T11:52:31;19.90;99.90
3051;DHT22;1535;51.098;6.414;2023-02-13T11:55:00;19.30;99.90
3051;DHT22;1535;51.098;6.414;2023-02-13T11:57:30;18.70;99.90
3051;DHT22;1535;51.098;6.414;2023-02-13T11:59:58;19.00;99.90
3051;DHT22;1535;51.098;6.414;2023-02-13T12:02:28;19.30;99.90
3051;DHT22;1535;51.098;6.414;2023-02-13T12:05:15;19.00;99.90
3051;DHT22;1535;51.098;6.414;2023-02-13T12:07:44;19.20;99.90
3051;DHT22;1535;51.098;6.414;2023-02-13T12:10:18;19.70;99.90
3051;DHT22;1535;51.098;6.414;2023-02-13T12:12:51;19.40;99.90
3051;DHT22;1535;51.098;6.414;2023-02-13T12:15:21;19.50;99.90
3051;DHT22;1535;51.098;6.414;2023-02-13T12:17:57;19.90;99.90
3051;DHT22;1535;51.098;6.414;2023-02-13T12:20:34;19.70;99.90
3051;DHT22;1535;51.098;6.414;2023-02-13T12:23:08;20.10;99.10
3051;DHT22;1535;51.098;6.414;2023-02-13T12:25:58;20.10;99.00
3051;DHT22;1535;51.098;6.414;2023-02-13T12:28:37;20.30;99.00
3051;DHT22;1535;51.098;6.414;2023-02-13T12:34:39;19.80;98.60
3051;DHT22;1535;51.098;6.414;2023-02-13T12:37:15;20.20;98.80
3051;DHT22;1535;51.098;6.414;2023-02-13T12:39:51;20.40;97.60
3051;DHT22;1535;51.098;6.414;2023-02-13T12:42:31;20.50;97.10
3051;DHT22;1535;51.098;6.414;2023-02-13T12:45:20;20.30;97.30
3051;DHT22;1535;51.098;6.414;2023-02-13T12:48:01;20.20;96.90
3051;DHT22;1535;51.098;6.414;2023-02-13T12:50:37;21.10;97.00
3051;DHT22;1535;51.098;6.414;2023-02-13T12:53:24;21.00;95.30
3051;DHT22;1535;51.098;6.414;2023-02-13T12:56:18;20.80;95.70
3051;DHT22;1535;51.098;6.414;2023-02-13T12:58:56;20.20;95.90
3051;DHT22;1535;51.098;6.414;2023-02-13T13:01:42;20.40;98.00
3051;DHT22;1535;51.098;6.414;2023-02-13T13:04:16;20.90;96.30
3051;DHT22;1535;51.098;6.414;2023-02-13T13:07:12;21.50;94.80
3051;DHT22;1535;51.098;6.414;2023-02-13T13:09:53;21.40;94.50
3051;DHT22;1535;51.098;6.414;2023-02-13T13:12:29;21.50;95.00
3051;DHT22;1535;51.098;6.414;2023-02-13T13:15:04;21.60;94.80
3051;DHT22;1535;51.098;6.414;2023-02-13T13:17:42;21.80;94.30
3051;DHT22;1535;51.098;6.414;2023-02-13T13:23:08;21.70;93.80
3051;DHT22;1535;51.098;6.414;2023-02-13T13:25:44;21.70;92.40
3051;DHT22;1535;51.098;6.414;2023-02-13T13:28:17;21.80;92.60
3051;DHT22;1535;51.098;6.414;2023-02-13T13:30:45;21.70;93.40
3051;DHT22;1535;51.098;6.414;2023-02-13T13:33:15;21.90;92.80
3051;DHT22;1535;51.098;6.414;2023-02-13T13:35:47;21.90;92.90
3051;DHT22;1535;51.098;6.414;2023-02-13T13:38:24;21.90;92.80
3051;DHT22;1535;51.098;6.414;2023-02-13T13:41:00;22.20;91.60
3051;DHT22;1535;51.098;6.414;2023-02-13T13:43:38;21.70;91.40
3051;DHT22;1535;51.098;6.414;2023-02-13T13:46:11;21.40;94.00
3051;DHT22;1535;51.098;6.414;2023-02-13T13:48:57;21.80;92.70
3051;DHT22;1535;51.098;6.414;2023-02-13T13:51:25;22.00;92.70
3051;DHT22;1535;51.098;6.414;2023-02-13T13:54:24;21.90;91.70
3051;DHT22;1535;51.098;6.414;2023-02-13T13:57:11;21.80;91.50
3051;DHT22;1535;51.098;6.414;2023-02-13T14:03:21;21.60;90.80
3051;DHT22;1535;51.098;6.414;2023-02-13T14:06:00;21.40;91.80
3051;DHT22;1535;51.098;6.414;2023-02-13T14:11:35;21.70;91.10
3051;DHT22;1535;51.098;6.414;2023-02-13T14:17:51;21.60;90.40
3051;DHT22;1535;51.098;6.414;2023-02-13T14:20:37;21.50;90.20
3051;DHT22;1535;51.098;6.414;2023-02-13T14:23:16;21.50;90.50
3051;DHT22;1535;51.098;6.414;2023-02-13T14:25:44;21.20;90.60
3051;DHT22;1535;51.098;6.414;2023-02-13T14:28:21;21.40;90.60
3051;DHT22;1535;51.098;6.414;2023-02-13T14:30:49;21.70;90.50
3051;DHT22;1535;51.098;6.414;2023-02-13T14:33:25;22.10;88.60
3051;DHT22;1535;51.098;6.414;2023-02-13T14:36:00;21.90;90.00
3051;DHT22;1535;51.098;6.414;2023-02-13T14:38:28;21.70;89.00
3051;DHT22;1535;51.098;6.414;2023-02-13T14:40:56;21.60;89.70
3051;DHT22;1535;51.098;6.414;2023-02-13T14:43:30;21.90;90.40
3051;DHT22;1535;51.098;6.414;2023-02-13T14:46:07;21.80;90.00
3051;DHT22;1535;51.098;6.414;2023-02-13T14:48:40;21.80;90.50
3051;DHT22;1535;51.098;6.414;2023-02-13T14:51:16;21.60;89.00
3051;DHT22;1535;51.098;6.414;2023-02-13T14:53:50;21.90;87.90
3051;DHT22;1535;51.098;6.414;2023-02-13T14:56:19;21.60;87.90
3051;DHT22;1535;51.098;6.414;2023-02-13T14:58:50;21.20;88.10
3051;DHT22;1535;51.098;6.414;2023-02-13T15:01:25;21.20;90.80
3051;DHT22;1535;51.098;6.414;2023-02-13T15:03:58;21.20;90.10
3051;DHT22;1535;51.098;6.414;2023-02-13T15:06:31;21.20;90.30
3051;DHT22;1535;51.098;6.414;2023-02-13T15:09:02;20.80;88.00
3051;DHT22;1535;51.098;6.414;2023-02-13T15:11:34;20.80;89.50
3051;DHT22;1535;51.098;6.414;2023-02-13T15:14:15;20.80;89.50
3051;DHT22;1535;51.098;6.414;2023-02-13T15:16:45;20.80;90.90
3051;DHT22;1535;51.098;6.414;2023-02-13T15:19:17;21.00;90.00
3051;DHT22;1535;51.098;6.414;2023-02-13T15:21:53;21.10;90.30
3051;DHT22;1535;51.098;6.414;2023-02-13T15:24:21;21.20;89.90
3051;DHT22;1535;51.098;6.414;2023-02-13T15:26:52;21.40;89.50
3051;DHT22;1535;51.098;6.414;2023-02-13T15:29:20;21.30;89.60
3051;DHT22;1535;51.098;6.414;2023-02-13T15:31:47;21.50;90.20
3051;DHT22;1535;51.098;6.414;2023-02-13T15:34:22;21.60;89.10
3051;DHT22;1535;51.098;6.414;2023-02-13T15:36:49;21.70;88.90
3051;DHT22;1535;51.098;6.414;2023-02-13T15:39:18;21.70;87.90
3051;DHT22;1535;51.098;6.414;2023-02-13T15:41:47;21.90;88.90
3051;DHT22;1535;51.098;6.414;2023-02-13T15:44:19;21.80;89.10
3051;DHT22;1535;51.098;6.414;2023-02-13T15:46:48;21.60;88.00
3051;DHT22;1535;51.098;6.414;2023-02-13T15:49:18;21.70;87.70
3051;DHT22;1535;51.098;6.414;2023-02-13T15:51:48;21.70;86.60
3051;DHT22;1535;51.098;6.414;2023-02-13T15:54:23;21.40;85.90
3051;DHT22;1535;51.098;6.414;2023-02-13T15:56:52;21.00;87.40
3051;DHT22;1535;51.098;6.414;2023-02-13T15:59:20;20.80;86.00
3051;DHT22;1535;51.098;6.414;2023-02-13T16:01:48;20.70;86.90
3051;DHT22;1535;51.098;6.414;2023-02-13T16:04:16;20.70;88.70
3051;DHT22;1535;51.098;6.414;2023-02-13T16:06:45;20.50;88.50
3051;DHT22;1535;51.098;6.414;2023-02-13T16:09:25;20.40;88.50
3051;DHT22;1535;51.098;6.414;2023-02-13T16:11:55;20.10;88.00
3051;DHT22;1535;51.098;6.414;2023-02-13T16:14:23;19.90;89.30
3051;DHT22;1535;51.098;6.414;2023-02-13T16:16:53;19.80;89.90
3051;DHT22;1535;51.098;6.414;2023-02-13T16:19:30;19.60;90.60
3051;DHT22;1535;51.098;6.414;2023-02-13T16:22:02;19.60;91.00
3051;DHT22;1535;51.098;6.414;2023-02-13T16:24:31;19.40;90.80
3051;DHT22;1535;51.098;6.414;2023-02-13T16:26:58;19.00;90.80
3051;DHT22;1535;51.098;6.414;2023-02-13T16:29:26;18.50;91.70
3051;DHT22;1535;51.098;6.414;2023-02-13T16:32:02;17.90;91.80
3051;DHT22;1535;51.098;6.414;2023-02-13T16:34:30;17.40;92.80
3051;DHT22;1535;51.098;6.414;2023-02-13T16:36:57;17.00;93.70
3051;DHT22;1535;51.098;6.414;2023-02-13T16:39:26;16.50;94.40
3051;DHT22;1535;51.098;6.414;2023-02-13T16:41:54;16.10;95.10
3051;DHT22;1535;51.098;6.414;2023-02-13T16:44:26;15.50;95.60
3051;DHT22;1535;51.098;6.414;2023-02-13T16:46:56;15.00;96.80
3051;DHT22;1535;51.098;6.414;2023-02-13T16:49:25;14.60;98.10
3051;DHT22;1535;51.098;6.414;2023-02-13T16:51:58;14.30;99.20
3051;DHT22;1535;51.098;6.414;2023-02-13T16:54:36;14.00;99.90
3051;DHT22;1535;51.098;6.414;2023-02-13T16:57:17;13.70;99.90
3051;DHT22;1535;51.098;6.414;2023-02-13T16:59:55;13.40;99.90
3051;DHT22;1535;51.098;6.414;2023-02-13T17:02:24;13.00;99.90
3051;DHT22;1535;51.098;6.414;2023-02-13T17:04:54;12.80;99.90